sensor_id;sensor_type;location;lat;lon;timestamp;P1;durP1;ratioP1;P2;durP2;ratioP2
7687;SDS011;30781;48.154;11.554;2022-08-19T00:00:05;4.50;;;4.20;;
7687;SDS011;30781;48.154;11.554;2022-08-19T00:02:48;5.30;;;5.00;;
7687;SDS011;30781;48.154;11.554;2022-08-19T00:05:17;4.73;;;4.43;;
7687;SDS011;30781;48.154;11.554;2022-08-19T00:07:44;4.90;;;4.60;;
7687;SDS011;30781;48.154;11.554;2022-08-19T00:10:21;5.67;;;5.17;;
7687;SDS011;30781;48.154;11.554;2022-08-19T00:12:49;5.70;;;5.20;;
7687;SDS011;30781;48.154;11.554;2022-08-19T00:15:19;5.57;;;5.17;;
7687;SDS011;30781;48.154;11.554;2022-08-19T00:17:49;5.47;;;5.10;;
7687;SDS011;30781;48.154;11.554;2022-08-19T00:22:59;5.73;;;5.23;;
7687;SDS011;30781;48.154;11.554;2022-08-19T00:25:47;5.97;;;5.57;;
7687;SDS011;30781;48.154;11.554;2022-08-19T00:28:28;6.47;;;5.97;;
7687;SDS011;30781;48.154;11.554;2022-08-19T00:30:56;6.00;;;5.50;;
7687;SDS011;30781;48.154;11.554;2022-08-19T00:33:23;6.97;;;6.37;;
7687;SDS011;30781;48.154;11.554;2022-08-19T00:35:52;7.50;;;6.87;;
7687;SDS011;30781;48.154;11.554;2022-08-19T00:38:22;7.07;;;6.47;;
7687;SDS011;30781;48.154;11.554;2022-08-19T00:40:51;6.90;;;6.27;;
7687;SDS011;30781;48.154;11.554;2022-08-19T00:43:22;7.53;;;6.83;;
7687;SDS011;30781;48.154;11.554;2022-08-19T00:45:51;7.50;;;7.00;;
7687;SDS011;30781;48.154;11.554;2022-08-19T00:48:19;7.00;;;6.43;;
7687;SDS011;30781;48.154;11.554;2022-08-19T00:50:50;8.00;;;7.20;;
7687;SDS011;30781;48.154;11.554;2022-08-19T00:53:22;7.23;;;6.73;;
7687;SDS011;30781;48.154;11.554;2022-08-19T00:56:22;7.93;;;7.33;;
7687;SDS011;30781;48.154;11.554;2022-08-19T00:59:04;8.87;;;8.07;;
7687;SDS011;30781;48.154;11.554;2022-08-19T01:01:34;8.40;;;7.60;;
7687;SDS011;30781;48.154;11.554;2022-08-19T01:04:02;8.73;;;7.93;;
7687;SDS011;30781;48.154;11.554;2022-08-19T01:06:30;8.70;;;8.00;;
7687;SDS011;30781;48.154;11.554;2022-08-19T01:08:58;9.10;;;8.43;;
7687;SDS011;30781;48.154;11.554;2022-08-19T01:11:28;8.20;;;7.60;;
7687;SDS011;30781;48.154;11.554;2022-08-19T01:13:57;9.43;;;8.63;;
7687;SDS011;30781;48.154;11.554;2022-08-19T01:16:27;8.93;;;8.23;;
7687;SDS011;30781;48.154;11.554;2022-08-19T01:18:56;9.23;;;8.50;;
7687;SDS011;30781;48.154;11.554;2022-08-19T01:21:28;9.47;;;8.67;;
7687;SDS011;30781;48.154;11.554;2022-08-19T01:24:14;10.23;;;9.33;;
7687;SDS011;30781;48.154;11.554;2022-08-19T01:26:53;10.30;;;9.50;;
7687;SDS011;30781;48.154;11.554;2022-08-19T01:29:22;10.60;;;9.53;;
7687;SDS011;30781;48.154;11.554;2022-08-19T01:31:50;11.63;;;10.53;;
7687;SDS011;30781;48.154;11.554;2022-08-19T01:34:19;11.50;;;10.47;;
7687;SDS011;30781;48.154;11.554;2022-08-19T01:37:05;11.40;;;10.47;;
7687;SDS011;30781;48.154;11.554;2022-08-19T01:42:21;11.40;;;10.40;;
7687;SDS011;30781;48.154;11.554;2022-08-19T01:44:50;11.03;;;9.90;;
7687;SDS011;30781;48.154;11.554;2022-08-19T01:47:34;10.53;;;9.63;;
7687;SDS011;30781;48.154;11.554;2022-08-19T01:50:10;11.10;;;10.20;;
7687;SDS011;30781;48.154;11.554;2022-08-19T01:52:38;10.33;;;9.43;;
7687;SDS011;30781;48.154;11.554;2022-08-19T01:55:09;10.33;;;9.43;;
7687;SDS011;30781;48.154;11.554;2022-08-19T01:57:51;10.77;;;9.80;;
7687;SDS011;30781;48.154;11.554;2022-08-19T02:00:22;9.90;;;9.10;;
7687;SDS011;30781;48.154;11.554;2022-08-19T02:02:52;9.73;;;8.83;;
7687;SDS011;30781;48.154;11.554;2022-08-19T02:05:27;9.80;;;9.00;;
7687;SDS011;30781;48.154;11.554;2022-08-19T02:08:03;9.67;;;8.87;;
7687;SDS011;30781;48.154;11.554;2022-08-19T02:10:33;9.30;;;8.50;;
7687;SDS011;30781;48.154;11.554;2022-08-19T02:13:10;9.57;;;8.77;;
7687;SDS011;30781;48.154;11.554;2022-08-19T02:15:38;9.03;;;8.23;;
7687;SDS011;30781;48.154;11.554;2022-08-19T02:18:06;9.53;;;8.73;;
7687;SDS011;30781;48.154;11.554;2022-08-19T02:20:33;8.37;;;7.73;;
7687;SDS011;30781;48.154;11.554;2022-08-19T02:23:02;9.73;;;8.90;;
7687;SDS011;30781;48.154;11.554;2022-08-19T02:28:19;7.80;;;7.20;;
7687;SDS011;30781;48.154;11.554;2022-08-19T02:30:46;8.80;;;8.10;;
7687;SDS011;30781;48.154;11.554;2022-08-19T02:33:15;8.00;;;7.30;;
7687;SDS011;30781;48.154;11.554;2022-08-19T02:35:47;8.57;;;7.77;;
7687;SDS011;30781;48.154;11.554;2022-08-19T02:38:14;8.60;;;7.90;;
7687;SDS011;30781;48.154;11.554;2022-08-19T02:40:55;8.53;;;7.83;;
7687;SDS011;30781;48.154;11.554;2022-08-19T02:43:25;7.73;;;7.03;;
7687;SDS011;30781;48.154;11.554;2022-08-19T02:46:13;7.60;;;7.00;;
7687;SDS011;30781;48.154;11.554;2022-08-19T02:48:50;7.57;;;6.90;;
7687;SDS011;30781;48.154;11.554;2022-08-19T02:51:20;8.47;;;7.77;;
7687;SDS011;30781;48.154;11.554;2022-08-19T02:53:49;8.17;;;7.47;;
7687;SDS011;30781;48.154;11.554;2022-08-19T02:56:19;8.97;;;8.17;;
7687;SDS011;30781;48.154;11.554;2022-08-19T02:58:49;7.63;;;7.00;;
7687;SDS011;30781;48.154;11.554;2022-08-19T03:01:20;8.17;;;7.47;;
7687;SDS011;30781;48.154;11.554;2022-08-19T03:03:48;8.40;;;7.70;;
7687;SDS011;30781;48.154;11.554;2022-08-19T03:06:18;7.97;;;7.30;;
7687;SDS011;30781;48.154;11.554;2022-08-19T03:08:46;7.90;;;7.10;;
7687;SDS011;30781;48.154;11.554;2022-08-19T03:11:15;7.70;;;7.07;;
7687;SDS011;30781;48.154;11.554;2022-08-19T03:13:45;7.80;;;7.13;;
7687;SDS011;30781;48.154;11.554;2022-08-19T03:16:14;7.80;;;7.10;;
7687;SDS011;30781;48.154;11.554;2022-08-19T03:18:41;8.07;;;7.37;;
7687;SDS011;30781;48.154;11.554;2022-08-19T03:21:35;8.33;;;7.63;;
7687;SDS011;30781;48.154;11.554;2022-08-19T03:27:32;7.37;;;6.87;;
7687;SDS011;30781;48.154;11.554;2022-08-19T03:30:06;6.97;;;6.37;;
7687;SDS011;30781;48.154;11.554;2022-08-19T03:32:34;7.63;;;7.03;;
7687;SDS011;30781;48.154;11.554;2022-08-19T03:35:06;7.37;;;6.77;;
7687;SDS011;30781;48.154;11.554;2022-08-19T03:37:34;6.10;;;5.50;;
7687;SDS011;30781;48.154;11.554;2022-08-19T03:40:04;7.03;;;6.53;;
7687;SDS011;30781;48.154;11.554;2022-08-19T03:42:31;7.10;;;6.50;;
7687;SDS011;30781;48.154;11.554;2022-08-19T03:44:59;7.43;;;6.80;;
7687;SDS011;30781;48.154;11.554;2022-08-19T03:47:30;7.37;;;6.67;;
7687;SDS011;30781;48.154;11.554;2022-08-19T03:49:57;7.03;;;6.53;;
7687;SDS011;30781;48.154;11.554;2022-08-19T03:52:25;6.53;;;6.03;;
7687;SDS011;30781;48.154;11.554;2022-08-19T03:54:53;7.87;;;7.10;;
7687;SDS011;30781;48.154;11.554;2022-08-19T03:57:21;7.23;;;6.73;;
7687;SDS011;30781;48.154;11.554;2022-08-19T03:59:51;7.90;;;7.20;;
7687;SDS011;30781;48.154;11.554;2022-08-19T04:02:18;7.73;;;7.03;;
7687;SDS011;30781;48.154;11.554;2022-08-19T04:04:48;7.43;;;6.73;;
7687;SDS011;30781;48.154;11.554;2022-08-19T04:07:15;8.60;;;7.83;;
7687;SDS011;30781;48.154;11.554;2022-08-19T04:09:46;8.87;;;8.13;;
7687;SDS011;30781;48.154;11.554;2022-08-19T04:12:29;9.37;;;8.03;;
7687;SDS011;30781;48.154;11.554;2022-08-19T04:18:33;9.70;;;8.80;;
7687;SDS011;30781;48.154;11.554;2022-08-19T04:21:02;9.00;;;8.20;;
7687;SDS011;30781;48.154;11.554;2022-08-19T04:23:31;8.50;;;7.87;;
7687;SDS011;30781;48.154;11.554;2022-08-19T04:25:58;9.00;;;8.20;;
7687;SDS011;30781;48.154;11.554;2022-08-19T04:28:26;9.93;;;8.97;;
7687;SDS011;30781;48.154;11.554;2022-08-19T04:30:59;10.30;;;9.23;;
7687;SDS011;30781;48.154;11.554;2022-08-19T04:33:28;11.13;;;10.03;;
7687;SDS011;30781;48.154;11.554;2022-08-19T04:35:55;10.33;;;9.43;;
7687;SDS011;30781;48.154;11.554;2022-08-19T04:38:35;13.00;;;11.00;;
7687;SDS011;30781;48.154;11.554;2022-08-19T04:41:03;11.50;;;10.30;;
7687;SDS011;30781;48.154;11.554;2022-08-19T04:43:51;10.10;;;9.30;;
7687;SDS011;30781;48.154;11.554;2022-08-19T04:46:25;10.53;;;9.50;;
7687;SDS011;30781;48.154;11.554;2022-08-19T04:48:56;10.43;;;9.53;;
7687;SDS011;30781;48.154;11.554;2022-08-19T04:51:23;10.97;;;9.90;;
7687;SDS011;30781;48.154;11.554;2022-08-19T04:53:52;11.57;;;10.47;;
7687;SDS011;30781;48.154;11.554;2022-08-19T04:56:20;11.20;;;10.07;;
7687;SDS011;30781;48.154;11.554;2022-08-19T04:58:50;10.37;;;9.47;;
7687;SDS011;30781;48.154;11.554;2022-08-19T05:01:19;10.80;;;9.90;;
7687;SDS011;30781;48.154;11.554;2022-08-19T05:03:48;10.23;;;9.33;;
7687;SDS011;30781;48.154;11.554;2022-08-19T05:06:19;10.07;;;9.17;;
7687;SDS011;30781;48.154;11.554;2022-08-19T05:08:47;10.30;;;9.30;;
7687;SDS011;30781;48.154;11.554;2022-08-19T05:11:26;11.63;;;10.30;;
7687;SDS011;30781;48.154;11.554;2022-08-19T05:13:54;10.63;;;9.63;;
7687;SDS011;30781;48.154;11.554;2022-08-19T05:16:23;9.90;;;9.00;;
7687;SDS011;30781;48.154;11.554;2022-08-19T05:19:08;10.00;;;9.10;;
7687;SDS011;30781;48.154;11.554;2022-08-19T05:21:53;11.43;;;10.30;;
7687;SDS011;30781;48.154;11.554;2022-08-19T05:24:38;11.23;;;10.23;;
7687;SDS011;30781;48.154;11.554;2022-08-19T05:27:07;11.17;;;9.80;;
7687;SDS011;30781;48.154;11.554;2022-08-19T05:29:37;12.00;;;10.80;;
7687;SDS011;30781;48.154;11.554;2022-08-19T05:32:10;11.93;;;10.30;;
7687;SDS011;30781;48.154;11.554;2022-08-19T05:34:37;10.47;;;9.57;;
7687;SDS011;30781;48.154;11.554;2022-08-19T05:37:05;10.70;;;9.73;;
7687;SDS011;30781;48.154;11.554;2022-08-19T05:39:34;10.10;;;9.23;;
7687;SDS011;30781;48.154;11.554;2022-08-19T05:42:04;9.27;;;8.57;;
7687;SDS011;30781;48.154;11.554;2022-08-19T05:44:43;10.47;;;9.57;;
7687;SDS011;30781;48.154;11.554;2022-08-19T05:47:12;10.63;;;9.63;;
7687;SDS011;30781;48.154;11.554;2022-08-19T05:49:40;10.00;;;9.10;;
7687;SDS011;30781;48.154;11.554;2022-08-19T05:52:08;10.30;;;9.40;;
7687;SDS011;30781;48.154;11.554;2022-08-19T05:54:39;11.10;;;10.00;;
7687;SDS011;30781;48.154;11.554;2022-08-19T05:57:15;10.40;;;9.23;;
7687;SDS011;30781;48.154;11.554;2022-08-19T05:59:42;11.50;;;10.33;;
7687;SDS011;30781;48.154;11.554;2022-08-19T06:02:15;12.00;;;10.80;;
7687;SDS011;30781;48.154;11.554;2022-08-19T06:04:42;12.27;;;11.07;;
7687;SDS011;30781;48.154;11.554;2022-08-19T06:07:10;12.00;;;10.90;;
7687;SDS011;30781;48.154;11.554;2022-08-19T06:09:37;12.97;;;11.67;;
7687;SDS011;30781;48.154;11.554;2022-08-19T06:12:07;12.37;;;11.27;;
7687;SDS011;30781;48.154;11.554;2022-08-19T06:14:42;13.73;;;12.43;;
7687;SDS011;30781;48.154;11.554;2022-08-19T06:17:12;12.17;;;11.07;;
7687;SDS011;30781;48.154;11.554;2022-08-19T06:19:40;15.47;;;13.13;;
7687;SDS011;30781;48.154;11.554;2022-08-19T06:22:08;15.87;;;14.30;;
7687;SDS011;30781;48.154;11.554;2022-08-19T06:24:37;14.77;;;13.47;;
7687;SDS011;30781;48.154;11.554;2022-08-19T06:27:05;15.33;;;13.87;;
7687;SDS011;30781;48.154;11.554;2022-08-19T06:29:34;15.93;;;14.53;;
7687;SDS011;30781;48.154;11.554;2022-08-19T06:32:14;15.77;;;14.37;;
7687;SDS011;30781;48.154;11.554;2022-08-19T06:34:47;14.63;;;13.33;;
7687;SDS011;30781;48.154;11.554;2022-08-19T06:37:17;13.73;;;12.57;;
7687;SDS011;30781;48.154;11.554;2022-08-19T06:39:49;12.98;;;11.77;;
7687;SDS011;30781;48.154;11.554;2022-08-19T06:42:16;14.87;;;13.30;;
7687;SDS011;30781;48.154;11.554;2022-08-19T06:44:44;14.97;;;13.57;;
7687;SDS011;30781;48.154;11.554;2022-08-19T06:47:17;14.50;;;12.43;;
7687;SDS011;30781;48.154;11.554;2022-08-19T06:49:45;13.47;;;12.17;;
7687;SDS011;30781;48.154;11.554;2022-08-19T06:52:15;13.10;;;11.90;;
7687;SDS011;30781;48.154;11.554;2022-08-19T06:54:46;15.10;;;13.60;;
7687;SDS011;30781;48.154;11.554;2022-08-19T06:57:13;16.70;;;15.03;;
7687;SDS011;30781;48.154;11.554;2022-08-19T06:59:41;17.73;;;16.03;;
7687;SDS011;30781;48.154;11.554;2022-08-19T07:02:08;14.73;;;13.47;;
7687;SDS011;30781;48.154;11.554;2022-08-19T07:04:37;16.37;;;14.70;;
7687;SDS011;30781;48.154;11.554;2022-08-19T07:07:05;17.42;;;15.63;;
7687;SDS011;30781;48.154;11.554;2022-08-19T07:09:35;16.52;;;15.02;;
7687;SDS011;30781;48.154;11.554;2022-08-19T07:12:04;16.57;;;14.97;;
7687;SDS011;30781;48.154;11.554;2022-08-19T07:14:33;16.30;;;14.63;;
7687;SDS011;30781;48.154;11.554;2022-08-19T07:17:03;25.52;;;18.40;;
7687;SDS011;30781;48.154;11.554;2022-08-19T07:19:38;17.52;;;15.27;;
7687;SDS011;30781;48.154;11.554;2022-08-19T07:22:06;15.80;;;14.27;;
7687;SDS011;30781;48.154;11.554;2022-08-19T07:24:42;16.63;;;14.93;;
7687;SDS011;30781;48.154;11.554;2022-08-19T07:27:13;16.80;;;15.20;;
7687;SDS011;30781;48.154;11.554;2022-08-19T07:29:45;18.60;;;16.85;;
7687;SDS011;30781;48.154;11.554;2022-08-19T07:32:13;17.55;;;15.88;;
7687;SDS011;30781;48.154;11.554;2022-08-19T07:34:47;19.33;;;17.30;;
7687;SDS011;30781;48.154;11.554;2022-08-19T07:37:23;19.67;;;17.60;;
7687;SDS011;30781;48.154;11.554;2022-08-19T07:39:53;19.15;;;17.25;;
7687;SDS011;30781;48.154;11.554;2022-08-19T07:42:25;19.55;;;17.55;;
7687;SDS011;30781;48.154;11.554;2022-08-19T07:44:54;19.95;;;18.08;;
7687;SDS011;30781;48.154;11.554;2022-08-19T07:47:22;20.38;;;18.27;;
7687;SDS011;30781;48.154;11.554;2022-08-19T07:49:53;22.23;;;20.05;;
7687;SDS011;30781;48.154;11.554;2022-08-19T07:52:21;22.20;;;20.00;;
7687;SDS011;30781;48.154;11.554;2022-08-19T07:54:49;21.98;;;19.70;;
7687;SDS011;30781;48.154;11.554;2022-08-19T07:57:17;21.20;;;19.20;;
7687;SDS011;30781;48.154;11.554;2022-08-19T07:59:45;21.08;;;18.98;;
7687;SDS011;30781;48.154;11.554;2022-08-19T08:02:12;21.20;;;19.10;;
7687;SDS011;30781;48.154;11.554;2022-08-19T08:04:39;21.80;;;19.55;;
7687;SDS011;30781;48.154;11.554;2022-08-19T08:07:26;23.50;;;21.10;;
7687;SDS011;30781;48.154;11.554;2022-08-19T08:10:10;21.58;;;19.67;;
7687;SDS011;30781;48.154;11.554;2022-08-19T08:12:38;24.35;;;22.02;;
7687;SDS011;30781;48.154;11.554;2022-08-19T08:15:11;21.83;;;19.70;;
7687;SDS011;30781;48.154;11.554;2022-08-19T08:17:42;23.00;;;20.60;;
7687;SDS011;30781;48.154;11.554;2022-08-19T08:20:10;24.80;;;22.40;;
7687;SDS011;30781;48.154;11.554;2022-08-19T08:22:44;22.77;;;20.58;;
7687;SDS011;30781;48.154;11.554;2022-08-19T08:25:44;24.25;;;21.75;;
7687;SDS011;30781;48.154;11.554;2022-08-19T08:28:12;23.30;;;20.88;;
7687;SDS011;30781;48.154;11.554;2022-08-19T08:30:39;23.92;;;21.50;;
7687;SDS011;30781;48.154;11.554;2022-08-19T08:33:11;25.63;;;23.15;;
7687;SDS011;30781;48.154;11.554;2022-08-19T08:35:52;24.80;;;22.30;;
7687;SDS011;30781;48.154;11.554;2022-08-19T08:38:34;25.92;;;23.17;;
7687;SDS011;30781;48.154;11.554;2022-08-19T08:41:04;26.08;;;23.30;;
7687;SDS011;30781;48.154;11.554;2022-08-19T08:43:36;25.10;;;22.63;;
7687;SDS011;30781;48.154;11.554;2022-08-19T08:46:09;24.08;;;21.77;;
7687;SDS011;30781;48.154;11.554;2022-08-19T08:48:41;26.05;;;23.42;;
7687;SDS011;30781;48.154;11.554;2022-08-19T08:51:16;24.15;;;21.80;;
7687;SDS011;30781;48.154;11.554;2022-08-19T08:54:05;27.33;;;24.70;;
7687;SDS011;30781;48.154;11.554;2022-08-19T08:56:33;26.83;;;24.15;;
7687;SDS011;30781;48.154;11.554;2022-08-19T08:59:02;26.40;;;23.77;;
7687;SDS011;30781;48.154;11.554;2022-08-19T09:01:35;28.25;;;25.33;;
7687;SDS011;30781;48.154;11.554;2022-08-19T09:04:04;26.05;;;23.45;;
7687;SDS011;30781;48.154;11.554;2022-08-19T09:06:36;28.63;;;25.52;;
7687;SDS011;30781;48.154;11.554;2022-08-19T09:09:17;26.17;;;23.48;;
7687;SDS011;30781;48.154;11.554;2022-08-19T09:11:52;26.05;;;23.40;;
7687;SDS011;30781;48.154;11.554;2022-08-19T09:14:32;26.80;;;24.02;;
7687;SDS011;30781;48.154;11.554;2022-08-19T09:17:12;28.45;;;25.45;;
7687;SDS011;30781;48.154;11.554;2022-08-19T09:19:47;27.33;;;24.52;;
7687;SDS011;30781;48.154;11.554;2022-08-19T09:22:17;27.83;;;24.83;;
7687;SDS011;30781;48.154;11.554;2022-08-19T09:24:49;27.60;;;24.02;;
7687;SDS011;30781;48.154;11.554;2022-08-19T09:27:19;28.38;;;25.48;;
7687;SDS011;30781;48.154;11.554;2022-08-19T09:29:57;25.95;;;23.25;;
7687;SDS011;30781;48.154;11.554;2022-08-19T09:32:24;26.23;;;23.52;;
7687;SDS011;30781;48.154;11.554;2022-08-19T09:34:52;28.33;;;25.15;;
7687;SDS011;30781;48.154;11.554;2022-08-19T09:37:31;27.48;;;24.38;;
7687;SDS011;30781;48.154;11.554;2022-08-19T09:40:05;25.05;;;22.38;;
7687;SDS011;30781;48.154;11.554;2022-08-19T09:42:43;24.80;;;22.20;;
7687;SDS011;30781;48.154;11.554;2022-08-19T09:45:12;24.73;;;22.02;;
7687;SDS011;30781;48.154;11.554;2022-08-19T09:47:41;25.13;;;21.48;;
7687;SDS011;30781;48.154;11.554;2022-08-19T09:50:10;23.38;;;20.98;;
7687;SDS011;30781;48.154;11.554;2022-08-19T09:52:39;23.15;;;19.88;;
7687;SDS011;30781;48.154;11.554;2022-08-19T09:55:14;20.75;;;18.50;;
7687;SDS011;30781;48.154;11.554;2022-08-19T09:57:42;23.15;;;20.88;;
7687;SDS011;30781;48.154;11.554;2022-08-19T10:00:10;21.15;;;19.05;;
7687;SDS011;30781;48.154;11.554;2022-08-19T10:02:38;21.00;;;18.88;;
7687;SDS011;30781;48.154;11.554;2022-08-19T10:05:05;20.52;;;18.42;;
7687;SDS011;30781;48.154;11.554;2022-08-19T10:07:52;18.85;;;17.15;;
7687;SDS011;30781;48.154;11.554;2022-08-19T10:10:27;17.27;;;15.73;;
7687;SDS011;30781;48.154;11.554;2022-08-19T10:13:02;18.77;;;16.80;;
7687;SDS011;30781;48.154;11.554;2022-08-19T10:15:38;16.98;;;15.27;;
7687;SDS011;30781;48.154;11.554;2022-08-19T10:18:05;16.58;;;14.98;;
7687;SDS011;30781;48.154;11.554;2022-08-19T10:20:36;17.15;;;15.45;;
7687;SDS011;30781;48.154;11.554;2022-08-19T10:23:04;16.75;;;15.15;;
7687;SDS011;30781;48.154;11.554;2022-08-19T10:25:33;16.33;;;14.82;;
7687;SDS011;30781;48.154;11.554;2022-08-19T10:28:01;16.55;;;15.02;;
7687;SDS011;30781;48.154;11.554;2022-08-19T10:30:31;16.95;;;15.35;;
7687;SDS011;30781;48.154;11.554;2022-08-19T10:32:58;16.60;;;15.00;;
7687;SDS011;30781;48.154;11.554;2022-08-19T10:35:25;16.92;;;15.32;;
7687;SDS011;30781;48.154;11.554;2022-08-19T10:37:54;16.63;;;15.05;;
7687;SDS011;30781;48.154;11.554;2022-08-19T10:40:24;14.85;;;13.45;;
7687;SDS011;30781;48.154;11.554;2022-08-19T10:42:53;16.77;;;15.27;;
7687;SDS011;30781;48.154;11.554;2022-08-19T10:45:23;15.10;;;13.70;;
7687;SDS011;30781;48.154;11.554;2022-08-19T10:47:52;13.88;;;12.60;;
7687;SDS011;30781;48.154;11.554;2022-08-19T10:50:22;14.90;;;13.60;;
7687;SDS011;30781;48.154;11.554;2022-08-19T10:53:09;14.38;;;13.07;;
7687;SDS011;30781;48.154;11.554;2022-08-19T10:55:37;15.40;;;14.00;;
7687;SDS011;30781;48.154;11.554;2022-08-19T10:58:23;15.30;;;13.85;;
7687;SDS011;30781;48.154;11.554;2022-08-19T11:00:51;14.63;;;13.27;;
7687;SDS011;30781;48.154;11.554;2022-08-19T11:03:21;14.93;;;13.63;;
7687;SDS011;30781;48.154;11.554;2022-08-19T11:05:56;12.05;;;11.00;;
7687;SDS011;30781;48.154;11.554;2022-08-19T11:08:24;12.30;;;11.40;;
7687;SDS011;30781;48.154;11.554;2022-08-19T11:10:53;11.63;;;10.63;;
7687;SDS011;30781;48.154;11.554;2022-08-19T11:13:24;12.70;;;11.60;;
7687;SDS011;30781;48.154;11.554;2022-08-19T11:15:57;14.02;;;12.73;;
7687;SDS011;30781;48.154;11.554;2022-08-19T11:18:25;12.88;;;11.75;;
7687;SDS011;30781;48.154;11.554;2022-08-19T11:20:53;12.05;;;11.07;;
7687;SDS011;30781;48.154;11.554;2022-08-19T11:23:21;12.00;;;10.93;;
7687;SDS011;30781;48.154;11.554;2022-08-19T11:25:49;10.70;;;9.80;;
7687;SDS011;30781;48.154;11.554;2022-08-19T11:28:16;10.65;;;9.75;;
7687;SDS011;30781;48.154;11.554;2022-08-19T11:30:45;9.18;;;8.48;;
7687;SDS011;30781;48.154;11.554;2022-08-19T11:33:13;7.35;;;6.75;;
7687;SDS011;30781;48.154;11.554;2022-08-19T11:35:44;5.80;;;5.30;;
7687;SDS011;30781;48.154;11.554;2022-08-19T11:38:11;5.90;;;5.40;;
7687;SDS011;30781;48.154;11.554;2022-08-19T11:40:39;5.05;;;4.65;;
7687;SDS011;30781;48.154;11.554;2022-08-19T11:43:07;3.83;;;3.47;;
7687;SDS011;30781;48.154;11.554;2022-08-19T11:45:34;4.15;;;3.40;;
7687;SDS011;30781;48.154;11.554;2022-08-19T11:48:06;4.25;;;4.05;;
7687;SDS011;30781;48.154;11.554;2022-08-19T11:50:33;4.03;;;3.72;;
7687;SDS011;30781;48.154;11.554;2022-08-19T11:53:08;4.07;;;3.80;;
7687;SDS011;30781;48.154;11.554;2022-08-19T11:55:36;3.78;;;3.58;;
7687;SDS011;30781;48.154;11.554;2022-08-19T11:58:14;3.72;;;2.90;;
7687;SDS011;30781;48.154;11.554;2022-08-19T12:00:42;3.10;;;3.00;;
7687;SDS011;30781;48.154;11.554;2022-08-19T12:03:12;2.67;;;2.58;;
7687;SDS011;30781;48.154;11.554;2022-08-19T12:05:46;2.95;;;2.75;;
7687;SDS011;30781;48.154;11.554;2022-08-19T12:08:14;2.85;;;2.60;;
7687;SDS011;30781;48.154;11.554;2022-08-19T12:10:45;2.35;;;2.25;;
7687;SDS011;30781;48.154;11.554;2022-08-19T12:13:12;2.22;;;2.13;;
7687;SDS011;30781;48.154;11.554;2022-08-19T12:15:43;2.30;;;2.10;;
7687;SDS011;30781;48.154;11.554;2022-08-19T12:18:13;1.90;;;1.80;;
7687;SDS011;30781;48.154;11.554;2022-08-19T12:20:46;5.43;;;2.40;;
7687;SDS011;30781;48.154;11.554;2022-08-19T12:23:14;1.70;;;1.60;;
7687;SDS011;30781;48.154;11.554;2022-08-19T12:25:44;2.08;;;2.00;;
7687;SDS011;30781;48.154;11.554;2022-08-19T12:28:17;1.92;;;1.77;;
7687;SDS011;30781;48.154;11.554;2022-08-19T12:30:45;2.30;;;2.20;;
7687;SDS011;30781;48.154;11.554;2022-08-19T12:33:14;2.63;;;2.13;;
7687;SDS011;30781;48.154;11.554;2022-08-19T12:35:42;1.70;;;1.70;;
7687;SDS011;30781;48.154;11.554;2022-08-19T12:38:22;2.25;;;1.90;;
7687;SDS011;30781;48.154;11.554;2022-08-19T12:40:49;1.83;;;1.75;;
7687;SDS011;30781;48.154;11.554;2022-08-19T12:43:18;2.30;;;2.20;;
7687;SDS011;30781;48.154;11.554;2022-08-19T12:45:46;1.80;;;1.80;;
7687;SDS011;30781;48.154;11.554;2022-08-19T12:48:15;1.70;;;1.60;;
7687;SDS011;30781;48.154;11.554;2022-08-19T12:50:45;1.83;;;1.83;;
7687;SDS011;30781;48.154;11.554;2022-08-19T12:53:12;2.20;;;2.10;;
7687;SDS011;30781;48.154;11.554;2022-08-19T12:55:41;1.45;;;1.45;;
7687;SDS011;30781;48.154;11.554;2022-08-19T12:58:09;1.63;;;1.63;;
7687;SDS011;30781;48.154;11.554;2022-08-19T13:00:37;1.95;;;1.85;;
7687;SDS011;30781;48.154;11.554;2022-08-19T13:03:05;1.88;;;1.77;;
7687;SDS011;30781;48.154;11.554;2022-08-19T13:05:34;2.45;;;2.35;;
7687;SDS011;30781;48.154;11.554;2022-08-19T13:08:02;2.08;;;1.98;;
7687;SDS011;30781;48.154;11.554;2022-08-19T13:10:34;2.17;;;2.08;;
7687;SDS011;30781;48.154;11.554;2022-08-19T13:13:05;2.13;;;1.98;;
7687;SDS011;30781;48.154;11.554;2022-08-19T13:15:38;1.85;;;1.85;;
7687;SDS011;30781;48.154;11.554;2022-08-19T13:18:08;2.00;;;1.90;;
7687;SDS011;30781;48.154;11.554;2022-08-19T13:20:43;1.98;;;1.90;;
7687;SDS011;30781;48.154;11.554;2022-08-19T13:23:10;1.90;;;1.73;;
7687;SDS011;30781;48.154;11.554;2022-08-19T13:25:38;2.20;;;2.10;;
7687;SDS011;30781;48.154;11.554;2022-08-19T13:28:05;1.55;;;1.55;;
7687;SDS011;30781;48.154;11.554;2022-08-19T13:30:34;1.70;;;1.60;;
7687;SDS011;30781;48.154;11.554;2022-08-19T13:33:19;1.90;;;1.80;;
7687;SDS011;30781;48.154;11.554;2022-08-19T13:35:49;2.00;;;1.90;;
7687;SDS011;30781;48.154;11.554;2022-08-19T13:38:22;3.03;;;1.77;;
7687;SDS011;30781;48.154;11.554;2022-08-19T13:40:51;1.95;;;1.85;;
7687;SDS011;30781;48.154;11.554;2022-08-19T13:43:29;2.47;;;2.03;;
7687;SDS011;30781;48.154;11.554;2022-08-19T13:45:56;2.60;;;2.03;;
7687;SDS011;30781;48.154;11.554;2022-08-19T13:48:25;2.42;;;2.33;;
7687;SDS011;30781;48.154;11.554;2022-08-19T13:50:54;2.42;;;2.33;;
7687;SDS011;30781;48.154;11.554;2022-08-19T13:53:25;2.55;;;2.40;;
7687;SDS011;30781;48.154;11.554;2022-08-19T13:55:52;2.65;;;2.55;;
7687;SDS011;30781;48.154;11.554;2022-08-19T13:58:20;2.47;;;2.38;;
7687;SDS011;30781;48.154;11.554;2022-08-19T14:00:49;2.33;;;2.22;;
7687;SDS011;30781;48.154;11.554;2022-08-19T14:03:17;2.78;;;2.50;;
7687;SDS011;30781;48.154;11.554;2022-08-19T14:05:45;3.38;;;3.17;;
7687;SDS011;30781;48.154;11.554;2022-08-19T14:08:14;2.95;;;2.75;;
7687;SDS011;30781;48.154;11.554;2022-08-19T14:10:42;3.20;;;3.00;;
7687;SDS011;30781;48.154;11.554;2022-08-19T14:13:12;3.00;;;2.83;;
7687;SDS011;30781;48.154;11.554;2022-08-19T14:15:41;2.25;;;2.17;;
7687;SDS011;30781;48.154;11.554;2022-08-19T14:18:08;2.90;;;2.80;;
7687;SDS011;30781;48.154;11.554;2022-08-19T14:20:36;2.80;;;2.70;;
7687;SDS011;30781;48.154;11.554;2022-08-19T14:23:03;3.03;;;2.92;;
7687;SDS011;30781;48.154;11.554;2022-08-19T14:25:33;3.17;;;2.97;;
7687;SDS011;30781;48.154;11.554;2022-08-19T14:28:05;3.42;;;3.22;;
7687;SDS011;30781;48.154;11.554;2022-08-19T14:30:42;3.60;;;3.40;;
7687;SDS011;30781;48.154;11.554;2022-08-19T14:33:09;3.72;;;3.42;;
7687;SDS011;30781;48.154;11.554;2022-08-19T14:35:38;3.67;;;3.47;;
7687;SDS011;30781;48.154;11.554;2022-08-19T14:38:14;3.80;;;3.60;;
7687;SDS011;30781;48.154;11.554;2022-08-19T14:40:45;3.30;;;3.10;;
7687;SDS011;30781;48.154;11.554;2022-08-19T14:43:14;3.03;;;2.83;;
7687;SDS011;30781;48.154;11.554;2022-08-19T14:45:42;3.85;;;3.65;;
7687;SDS011;30781;48.154;11.554;2022-08-19T14:48:22;3.40;;;3.20;;
7687;SDS011;30781;48.154;11.554;2022-08-19T14:50:49;3.33;;;3.13;;
7687;SDS011;30781;48.154;11.554;2022-08-19T14:53:17;3.40;;;3.20;;
7687;SDS011;30781;48.154;11.554;2022-08-19T14:55:46;3.03;;;2.92;;
7687;SDS011;30781;48.154;11.554;2022-08-19T14:58:13;3.40;;;3.20;;
7687;SDS011;30781;48.154;11.554;2022-08-19T15:00:41;3.33;;;3.03;;
7687;SDS011;30781;48.154;11.554;2022-08-19T15:03:08;3.53;;;3.33;;
7687;SDS011;30781;48.154;11.554;2022-08-19T15:05:37;3.70;;;3.50;;
7687;SDS011;30781;48.154;11.554;2022-08-19T15:08:04;3.50;;;3.30;;
7687;SDS011;30781;48.154;11.554;2022-08-19T15:10:33;3.30;;;3.10;;
7687;SDS011;30781;48.154;11.554;2022-08-19T15:13:02;3.47;;;3.28;;